Time;durP1;ratioP1;P1;durP2;ratioP2;P2;SDS_P1;SDS_P2;PMS_P1;PMS_P2;Temp;Humidity;BMP_temperature;BMP_pressure;BME280_temperature;BME280_humidity;BME280_pressure;Samples;Min_cycle;Max_cycle;Signal;HPM_P1;HPM_P2
2021/08/19 00:01:35;;;;;;;18.27;14.13;;;17.10;99.90;;;;;;5056143;28;20225;-67
2021/08/19 00:04:00;;;;;;;13.70;12.03;;;17.20;99.90;;;;;;5072998;28;20181;-67
2021/08/19 00:06:26;;;;;;;13.17;11.63;;;17.20;99.90;;;;;;5073980;28;20178;-67
2021/08/19 00:08:52;;;;;;;12.90;11.73;;;17.20;99.90;;;;;;5074109;28;20170;-67
2021/08/19 00:11:17;;;;;;;12.10;10.97;;;17.20;99.90;;;;;;5072303;28;20221;-67
2021/08/19 00:13:43;;;;;;;12.87;11.57;;;17.20;99.90;;;;;;5074147;28;20297;-67
2021/08/19 00:16:09;;;;;;;14.63;12.37;;;17.20;99.90;;;;;;5074011;28;20182;-67
2021/08/19 00:18:36;;;;;;;15.13;13.53;;;17.30;99.90;;;;;;5072790;28;20535;-67
2021/08/19 00:21:02;;;;;;;15.13;13.63;;;17.30;99.90;;;;;;5073195;28;20259;-67
2021/08/19 00:23:30;;;;;;;15.77;14.07;;;17.30;99.90;;;;;;5071857;28;20209;-67
2021/08/19 00:25:55;;;;;;;15.03;13.43;;;17.30;99.90;;;;;;5073638;28;20182;-67
2021/08/19 00:28:21;;;;;;;16.60;14.50;;;17.30;99.90;;;;;;5073816;28;20266;-67
2021/08/19 00:30:46;;;;;;;15.90;14.30;;;17.30;99.90;;;;;;5073244;28;20213;-67
2021/08/19 00:33:12;;;;;;;19.77;15.10;;;17.30;99.90;;;;;;5073608;28;20183;-67
2021/08/19 00:35:38;;;;;;;16.40;14.70;;;17.40;99.90;;;;;;5073610;28;20628;-67
2021/08/19 00:38:04;;;;;;;15.73;13.10;;;17.40;99.90;;;;;;5072489;28;20612;-67
2021/08/19 00:40:31;;;;;;;16.47;12.67;;;17.40;99.90;;;;;;5073096;28;20606;-67
2021/08/19 00:42:59;;;;;;;14.07;12.67;;;17.40;99.90;;;;;;5072827;28;20759;-68
2021/08/19 00:45:25;;;;;;;12.63;11.33;;;17.40;99.90;;;;;;5072567;28;20170;-68
2021/08/19 00:47:51;;;;;;;14.57;12.70;;;17.40;99.90;;;;;;5074017;28;20650;-67
2021/08/19 00:50:17;;;;;;;16.10;12.73;;;17.50;99.90;;;;;;5073019;28;20198;-68
2021/08/19 00:52:44;;;;;;;15.70;11.50;;;17.50;99.90;;;;;;5072221;28;20208;-67
2021/08/19 00:55:12;;;;;;;12.80;11.60;;;17.50;99.90;;;;;;5071996;28;20546;-67
2021/08/19 00:57:42;;;;;;;11.10;10.00;;;17.50;99.90;;;;;;5072203;28;20639;-67
2021/08/19 01:00:09;;;;;;;12.53;11.07;;;17.50;99.90;;;;;;5072860;28;20276;-67
2021/08/19 01:02:35;;;;;;;14.93;12.20;;;17.50;99.90;;;;;;5073187;28;20213;-67
2021/08/19 01:05:01;;;;;;;11.20;10.20;;;17.50;99.90;;;;;;5071430;28;20178;-67
2021/08/19 01:07:27;;;;;;;12.60;11.30;;;17.50;99.90;;;;;;5071713;28;20181;-67
2021/08/19 01:09:52;;;;;;;14.23;10.43;;;17.50;99.90;;;;;;5072344;28;20447;-67
2021/08/19 01:12:19;;;;;;;12.27;11.07;;;17.60;99.90;;;;;;5073164;28;20167;-67
2021/08/19 01:14:45;;;;;;;12.10;10.87;;;17.60;99.90;;;;;;5071462;28;20210;-67
2021/08/19 01:17:17;;;;;;;14.23;11.30;;;17.60;99.90;;;;;;5072737;28;20174;-67
2021/08/19 01:19:45;;;;;;;11.63;10.43;;;17.50;99.90;;;;;;5072546;28;20574;-67
2021/08/19 01:22:11;;;;;;;12.70;11.40;;;17.60;99.90;;;;;;5072506;28;20685;-67
2021/08/19 01:24:36;;;;;;;14.30;11.40;;;17.60;99.90;;;;;;5071986;28;20182;-67
2021/08/19 01:27:02;;;;;;;12.80;11.20;;;17.60;99.90;;;;;;5072063;28;20197;-67
2021/08/19 01:29:28;;;;;;;11.20;10.20;;;17.60;99.90;;;;;;5072426;28;20221;-67
2021/08/19 01:32:03;;;;;;;10.13;9.23;;;17.60;99.90;;;;;;5072282;28;20224;-67
2021/08/19 01:34:29;;;;;;;11.00;9.90;;;17.60;99.90;;;;;;5072680;28;20177;-67
2021/08/19 01:36:56;;;;;;;13.33;10.80;;;17.60;99.90;;;;;;5070966;28;20183;-67
2021/08/19 01:39:22;;;;;;;12.40;10.90;;;17.60;99.90;;;;;;5072149;28;20617;-67
2021/08/19 01:41:48;;;;;;;10.70;9.63;;;17.60;99.90;;;;;;5072031;28;20288;-67
2021/08/19 01:44:14;;;;;;;12.50;10.27;;;17.60;99.90;;;;;;5072507;28;20249;-67
2021/08/19 01:46:40;;;;;;;12.27;11.07;;;17.60;99.90;;;;;;5072142;28;20174;-67
2021/08/19 01:49:05;;;;;;;12.90;11.57;;;17.60;99.90;;;;;;5070869;28;20220;-67
2021/08/19 01:51:33;;;;;;;12.27;11.10;;;17.60;99.90;;;;;;5070560;28;20538;-67
2021/08/19 01:53:59;;;;;;;13.60;11.37;;;17.60;99.90;;;;;;5071040;28;20249;-67
2021/08/19 01:56:25;;;;;;;10.40;9.50;;;17.70;99.90;;;;;;5071947;28;20679;-67
2021/08/19 01:58:53;;;;;;;10.63;9.53;;;17.70;99.90;;;;;;5072051;28;20177;-67
2021/08/19 02:01:23;;;;;;;10.97;9.10;;;17.60;99.90;;;;;;5069602;28;20193;-67
2021/08/19 02:03:50;;;;;;;12.63;10.33;;;17.70;99.90;;;;;;5070599;28;20653;-67
2021/08/19 02:06:16;;;;;;;10.60;9.50;;;17.70;99.90;;;;;;5071879;28;20825;-67
2021/08/19 02:08:41;;;;;;;11.30;10.30;;;17.70;99.90;;;;;;5071950;28;20516;-67
2021/08/19 02:11:07;;;;;;;16.47;10.03;;;17.70;99.90;;;;;;5071241;28;20281;-67
2021/08/19 02:13:33;;;;;;;12.17;10.90;;;17.70;99.90;;;;;;5072247;28;20174;-69
2021/08/19 02:16:01;;;;;;;10.50;9.60;;;17.70;99.90;;;;;;5071637;28;20236;-67
2021/08/19 02:18:27;;;;;;;11.03;9.73;;;17.70;99.90;;;;;;5071957;28;20166;-67
2021/08/19 02:20:52;;;;;;;11.63;9.80;;;17.70;99.90;;;;;;5071101;28;20210;-67
2021/08/19 02:23:18;;;;;;;10.93;9.80;;;17.70;99.90;;;;;;5070740;28;20262;-67
2021/08/19 02:25:44;;;;;;;12.23;10.13;;;17.70;99.90;;;;;;5071784;28;20185;-67
2021/08/19 02:28:09;;;;;;;11.17;9.67;;;17.70;99.90;;;;;;5069759;28;20178;-67
2021/08/19 02:30:35;;;;;;;12.67;11.37;;;17.80;99.90;;;;;;5071432;28;20190;-67
2021/08/19 02:33:01;;;;;;;10.70;9.70;;;17.70;99.90;;;;;;5071281;28;20169;-67
2021/08/19 02:35:29;;;;;;;9.90;9.00;;;17.70;99.90;;;;;;5070954;28;20647;-67
2021/08/19 02:37:56;;;;;;;11.63;10.43;;;17.70;99.90;;;;;;5071482;28;20178;-67
2021/08/19 02:40:24;;;;;;;11.70;10.50;;;17.70;99.90;;;;;;5071329;28;20200;-67
2021/08/19 02:42:50;;;;;;;12.03;10.10;;;17.70;99.90;;;;;;5071249;28;20290;-66
2021/08/19 02:45:16;;;;;;;11.10;10.17;;;17.60;99.90;;;;;;5071482;28;20178;-65
2021/08/19 02:47:42;;;;;;;11.30;10.20;;;17.60;99.90;;;;;;5070052;28;20666;-65
2021/08/19 02:50:08;;;;;;;11.90;10.80;;;17.60;99.90;;;;;;5069888;28;20197;-66
2021/08/19 02:52:34;;;;;;;10.77;9.67;;;17.60;99.90;;;;;;5071435;28;20186;-66
2021/08/19 02:55:00;;;;;;;12.13;9.83;;;17.70;99.90;;;;;;5070374;28;20185;-66
2021/08/19 02:57:26;;;;;;;10.63;8.80;;;17.70;99.90;;;;;;5069943;28;20179;-66
2021/08/19 02:59:52;;;;;;;11.03;8.40;;;17.70;99.90;;;;;;5070993;28;20256;-66
2021/08/19 03:02:17;;;;;;;12.83;8.70;;;17.70;99.90;;;;;;5071332;28;20209;-66
2021/08/19 03:04:43;;;;;;;10.17;8.50;;;17.70;99.90;;;;;;5071530;28;20181;-66
2021/08/19 03:07:09;;;;;;;8.77;8.07;;;17.70;99.90;;;;;;5069536;28;20665;-67
2021/08/19 03:09:35;;;;;;;9.60;8.80;;;17.60;99.90;;;;;;5070075;28;20194;-66
2021/08/19 03:12:02;;;;;;;10.20;9.27;;;17.60;99.90;;;;;;5071039;28;20261;-66
2021/08/19 03:14:28;;;;;;;10.33;8.67;;;17.60;99.90;;;;;;5074118;28;20576;-66
2021/08/19 03:16:54;;;;;;;11.10;9.90;;;17.60;99.90;;;;;;5073623;28;20217;-67
2021/08/19 03:19:20;;;;;;;9.90;9.07;;;17.50;99.90;;;;;;5074616;28;20212;-66
2021/08/19 03:21:45;;;;;;;10.50;9.67;;;17.50;99.90;;;;;;5074832;28;20198;-66
2021/08/19 03:24:11;;;;;;;11.10;9.10;;;17.40;99.90;;;;;;5073988;28;20174;-66
2021/08/19 03:26:37;;;;;;;11.33;9.97;;;17.30;99.90;;;;;;5075130;28;20535;-66
2021/08/19 03:29:02;;;;;;;10.33;9.10;;;17.20;99.90;;;;;;5074235;28;20644;-66
2021/08/19 03:31:28;;;;;;;10.70;9.83;;;17.20;99.90;;;;;;5074607;28;20170;-66
2021/08/19 03:33:54;;;;;;;11.37;10.23;;;17.20;99.90;;;;;;5074725;28;20177;-66
2021/08/19 03:36:19;;;;;;;12.40;10.27;;;17.20;99.90;;;;;;5074892;28;20181;-66
2021/08/19 03:38:45;;;;;;;10.07;9.17;;;17.20;99.90;;;;;;5074245;28;20185;-66
2021/08/19 03:41:11;;;;;;;12.13;9.57;;;17.30;99.90;;;;;;5074563;28;20170;-66
2021/08/19 03:43:38;;;;;;;10.50;9.60;;;17.30;99.90;;;;;;5074472;28;20252;-66
2021/08/19 03:46:04;;;;;;;10.37;9.37;;;17.30;99.90;;;;;;5073359;28;20198;-66
2021/08/19 03:48:31;;;;;;;9.63;8.67;;;17.30;99.90;;;;;;5073130;28;20701;-66
2021/08/19 03:50:57;;;;;;;9.83;9.03;;;17.40;99.90;;;;;;5074221;28;20248;-66
2021/08/19 03:53:22;;;;;;;9.87;9.00;;;17.40;99.90;;;;;;5074375;28;20189;-66
2021/08/19 03:55:48;;;;;;;10.13;9.20;;;17.40;99.90;;;;;;5074374;28;20178;-66
2021/08/19 03:58:13;;;;;;;10.80;9.90;;;17.40;99.90;;;;;;5074222;28;20186;-66
2021/08/19 04:00:39;;;;;;;16.60;11.73;;;17.40;99.90;;;;;;5074134;28;20190;-66
2021/08/19 04:03:05;;;;;;;10.87;10.07;;;17.30;99.90;;;;;;5074021;28;20212;-66
2021/08/19 04:05:30;;;;;;;10.87;9.87;;;17.30;99.90;;;;;;5074412;28;20166;-66
2021/08/19 04:07:56;;;;;;;10.93;10.00;;;17.40;99.90;;;;;;5074014;28;20628;-66
2021/08/19 04:10:22;;;;;;;10.20;9.40;;;17.40;99.90;;;;;;5072677;28;20198;-66
2021/08/19 04:12:47;;;;;;;10.73;9.73;;;17.40;99.90;;;;;;5074042;28;20186;-66
2021/08/19 04:15:14;;;;;;;11.20;10.10;;;17.40;99.90;;;;;;5074210;28;20178;-66
2021/08/19 04:17:39;;;;;;;10.60;9.60;;;17.40;99.90;;;;;;5072724;28;20181;-66
2021/08/19 04:20:07;;;;;;;12.63;10.20;;;17.30;99.90;;;;;;5086861;22;20225;-66
2021/08/19 04:22:33;;;;;;;11.03;9.80;;;17.30;99.90;;;;;;5093620;28;20211;-66
2021/08/19 04:24:58;;;;;;;11.40;10.30;;;17.30;99.90;;;;;;5093076;28;20181;-66
2021/08/19 04:27:24;;;;;;;10.70;9.80;;;17.30;99.90;;;;;;5092767;28;20174;-66
2021/08/19 04:29:50;;;;;;;11.20;10.07;;;17.40;99.90;;;;;;5093254;28;20194;-66
2021/08/19 04:32:16;;;;;;;9.80;8.90;;;17.40;99.90;;;;;;5094132;28;20692;-66
2021/08/19 04:34:42;;;;;;;10.73;9.83;;;17.40;99.90;;;;;;5092547;28;20192;-66
2021/08/19 04:37:07;;;;;;;11.07;9.00;;;17.40;99.90;;;;;;5094030;28;20174;-66
2021/08/19 04:39:33;;;;;;;10.47;9.47;;;17.40;99.90;;;;;;5093347;28;20211;-66
2021/08/19 04:41:58;;;;;;;10.50;9.40;;;17.50;99.90;;;;;;5093804;28;20204;-66
2021/08/19 04:44:24;;;;;;;10.50;9.43;;;17.40;99.90;;;;;;5093636;28;20669;-66
2021/08/19 04:46:50;;;;;;;13.57;9.43;;;17.50;99.90;;;;;;5093860;28;20165;-66
2021/08/19 04:49:16;;;;;;;10.00;9.07;;;17.50;99.90;;;;;;5091925;28;20205;-67
2021/08/19 04:51:41;;;;;;;9.93;9.03;;;17.50;99.90;;;;;;5093670;28;20169;-66
2021/08/19 04:54:08;;;;;;;10.07;9.10;;;17.50;99.90;;;;;;5093583;28;20189;-66
2021/08/19 04:56:37;;;;;;;10.80;9.80;;;17.50;99.90;;;;;;5092614;28;20569;-66
2021/08/19 04:59:08;;;;;;;11.07;9.83;;;17.50;99.90;;;;;;5093394;28;20645;-66
2021/08/19 05:01:33;;;;;;;10.67;9.67;;;17.40;99.90;;;;;;5091736;28;20356;-67
2021/08/19 05:03:59;;;;;;;11.10;9.90;;;17.50;99.90;;;;;;5093239;28;20698;-66
2021/08/19 05:06:30;;;;;;;10.50;9.50;;;17.50;99.90;;;;;;5092213;28;20265;-66
2021/08/19 05:08:58;;;;;;;11.10;10.20;;;17.50;99.90;;;;;;5091979;28;20278;-66
2021/08/19 05:11:24;;;;;;;13.30;10.00;;;17.50;99.90;;;;;;5092809;28;20185;-66
2021/08/19 05:13:52;;;;;;;11.00;9.90;;;17.50;99.90;;;;;;5092972;28;20651;-66
2021/08/19 05:16:18;;;;;;;9.93;8.93;;;17.50;99.90;;;;;;5093255;28;20162;-67
2021/08/19 05:18:44;;;;;;;9.90;9.10;;;17.50;99.90;;;;;;5091699;28;20173;-67
2021/08/19 05:21:13;;;;;;;10.13;8.77;;;17.50;99.90;;;;;;5092671;28;20209;-67
2021/08/19 05:23:40;;;;;;;10.47;9.27;;;17.60;99.90;;;;;;5092053;28;20232;-67
2021/08/19 05:26:06;;;;;;;10.27;8.73;;;17.60;99.90;;;;;;5092946;28;20177;-67
2021/08/19 05:28:32;;;;;;;9.97;8.53;;;17.60;99.90;;;;;;5092879;28;20204;-67
2021/08/19 05:30:58;;;;;;;9.10;8.20;;;17.70;99.90;;;;;;5092570;28;20224;-67
2021/08/19 05:33:23;;;;;;;9.60;8.60;;;17.70;99.90;;;;;;5092566;28;20185;-66
2021/08/19 05:35:49;;;;;;;21.53;10.67;;;17.60;99.90;;;;;;5092823;28;20531;-66
2021/08/19 05:38:15;;;;;;;9.80;8.80;;;17.70;99.90;;;;;;5092692;28;20223;-67
2021/08/19 05:40:40;;;;;;;9.43;8.53;;;17.70;99.90;;;;;;5091040;28;20193;-66
2021/08/19 05:43:06;;;;;;;9.80;8.77;;;17.60;99.90;;;;;;5091117;28;20219;-67
2021/08/19 05:45:33;;;;;;;10.87;9.33;;;17.60;99.90;;;;;;5092651;28;20189;-66
2021/08/19 05:47:58;;;;;;;10.00;8.87;;;17.60;99.90;;;;;;5092357;28;20211;-67
2021/08/19 05:50:24;;;;;;;10.50;9.50;;;17.60;99.90;;;;;;5092407;28;20278;-67
2021/08/19 05:52:50;;;;;;;10.73;9.80;;;17.70;99.90;;;;;;5092329;28;20654;-66
2021/08/19 05:55:16;;;;;;;10.63;9.63;;;17.70;99.90;;;;;;5091017;28;20209;-67
2021/08/19 05:57:41;;;;;;;9.47;8.53;;;17.70;99.90;;;;;;5090795;28;20183;-66
2021/08/19 06:00:07;;;;;;;10.33;9.43;;;17.70;99.90;;;;;;5091982;28;20228;-67
2021/08/19 06:02:33;;;;;;;9.97;9.17;;;17.60;99.90;;;;;;5091923;28;20291;-67
2021/08/19 06:04:59;;;;;;;9.73;8.83;;;17.70;99.90;;;;;;5092222;28;20256;-67
2021/08/19 06:07:25;;;;;;;11.07;10.07;;;17.60;99.90;;;;;;5091962;28;20181;-66
2021/08/19 06:09:51;;;;;;;10.97;10.07;;;17.60;99.90;;;;;;5091688;28;20189;-66
2021/08/19 06:12:17;;;;;;;9.33;8.50;;;17.60;99.90;;;;;;5091920;28;20549;-67
2021/08/19 06:14:43;;;;;;;10.77;9.77;;;17.60;99.90;;;;;;5090839;28;20319;-67
2021/08/19 06:17:08;;;;;;;10.07;9.00;;;17.60;99.90;;;;;;5091858;28;20264;-67
2021/08/19 06:19:34;;;;;;;11.00;9.87;;;17.60;99.90;;;;;;5091649;28;20602;-67
2021/08/19 06:22:00;;;;;;;10.73;9.63;;;17.60;99.90;;;;;;5091699;28;20670;-67
2021/08/19 06:24:25;;;;;;;10.23;9.33;;;17.70;99.90;;;;;;5090927;28;20170;-67
2021/08/19 06:26:51;;;;;;;10.10;9.20;;;17.70;99.90;;;;;;5091703;28;20232;-67
2021/08/19 06:29:16;;;;;;;11.40;10.30;;;17.80;99.90;;;;;;5091699;28;20196;-66
2021/08/19 06:31:42;;;;;;;11.90;10.83;;;17.90;99.90;;;;;;5091380;28;20661;-67
2021/08/19 06:34:08;;;;;;;11.70;10.60;;;17.80;99.90;;;;;;5091675;28;20281;-67
2021/08/19 06:36:33;;;;;;;11.17;10.07;;;17.90;99.90;;;;;;5091845;28;20260;-67
2021/08/19 06:38:59;;;;;;;10.73;9.63;;;18.00;99.90;;;;;;5091757;28;20753;-67
2021/08/19 06:41:26;;;;;;;10.77;9.73;;;17.90;99.90;;;;;;5091094;28;20721;-66
2021/08/19 06:43:52;;;;;;;9.10;8.37;;;18.00;99.90;;;;;;5090358;28;20223;-67
2021/08/19 06:46:18;;;;;;;10.30;9.50;;;18.00;99.90;;;;;;5091518;28;20173;-67
2021/08/19 06:48:44;;;;;;;11.03;10.00;;;18.00;99.90;;;;;;5075289;28;20249;-67
2021/08/19 06:51:09;;;;;;;11.47;9.70;;;18.10;99.90;;;;;;5077717;28;20193;-66
2021/08/19 06:53:36;;;;;;;12.43;9.70;;;18.10;99.90;;;;;;5096946;28;20212;-67
2021/08/19 06:56:05;;;;;;;11.37;10.30;;;18.10;99.90;;;;;;5098431;28;20483;-67
2021/08/19 06:58:30;;;;;;;10.60;9.60;;;18.10;99.90;;;;;;5098202;28;20259;-67
2021/08/19 07:00:56;;;;;;;10.33;9.37;;;18.20;99.90;;;;;;5097939;28;20193;-66
2021/08/19 07:03:23;;;;;;;11.03;9.93;;;18.20;99.90;;;;;;5097939;28;20209;-66
2021/08/19 07:05:49;;;;;;;12.43;10.30;;;18.30;99.90;;;;;;5097005;28;20169;-67
2021/08/19 07:08:15;;;;;;;11.23;9.27;;;18.40;99.90;;;;;;5096745;28;20693;-66
2021/08/19 07:10:42;;;;;;;10.10;9.20;;;18.50;99.90;;;;;;5098066;28;20189;-67
2021/08/19 07:13:08;;;;;;;12.13;10.93;;;18.50;99.90;;;;;;5097841;28;20191;-67
2021/08/19 07:15:34;;;;;;;11.63;10.53;;;18.60;99.90;;;;;;5096871;28;20178;-66
2021/08/19 07:18:00;;;;;;;11.17;10.07;;;18.60;99.90;;;;;;5097750;28;20220;-66
2021/08/19 07:20:26;;;;;;;12.93;11.63;;;18.70;99.90;;;;;;5096429;28;20303;-66
2021/08/19 07:22:51;;;;;;;13.97;12.57;;;18.50;99.90;;;;;;5096715;28;20628;-67
2021/08/19 07:25:18;;;;;;;14.07;12.57;;;18.50;99.90;;;;;;5098030;28;20166;-67
2021/08/19 07:27:44;;;;;;;12.93;11.53;;;18.50;99.90;;;;;;5097817;28;20171;-67
2021/08/19 07:30:11;;;;;;;11.57;10.47;;;18.60;99.90;;;;;;5096409;28;20258;-66
2021/08/19 07:32:37;;;;;;;14.90;11.83;;;18.60;99.90;;;;;;5097801;28;20178;-67
2021/08/19 07:35:04;;;;;;;14.00;11.33;;;18.60;99.90;;;;;;5096357;28;20233;-67
2021/08/19 07:37:30;;;;;;;13.23;11.93;;;18.60;99.90;;;;;;5097610;28;20184;-68
2021/08/19 07:39:56;;;;;;;14.47;12.97;;;18.60;99.90;;;;;;5097577;28;20197;-66
2021/08/19 07:42:22;;;;;;;13.03;11.57;;;18.40;99.90;;;;;;5096436;28;20224;-67
2021/08/19 07:44:47;;;;;;;13.63;12.30;;;18.40;99.90;;;;;;5097895;28;20162;-66
2021/08/19 07:47:13;;;;;;;15.03;13.47;;;18.40;99.90;;;;;;5097124;28;20534;-66
2021/08/19 07:49:38;;;;;;;15.53;13.33;;;18.50;99.90;;;;;;5097424;28;20263;-67
2021/08/19 07:52:04;;;;;;;12.83;11.47;;;18.50;99.90;;;;;;5097463;28;20180;-67
2021/08/19 07:54:30;;;;;;;14.50;12.23;;;18.60;99.90;;;;;;5096413;28;20174;-67
2021/08/19 07:56:55;;;;;;;13.33;12.07;;;18.80;99.90;;;;;;5097870;28;20174;-66
2021/08/19 07:59:21;;;;;;;12.40;11.20;;;18.80;99.90;;;;;;5095877;28;20178;-66
2021/08/19 08:01:47;;;;;;;12.57;11.40;;;18.90;99.90;;;;;;5093613;28;20184;-67
2021/08/19 08:04:13;;;;;;;12.37;11.20;;;18.80;99.90;;;;;;5093716;28;20173;-67
2021/08/19 08:06:39;;;;;;;13.13;11.63;;;18.80;99.90;;;;;;5094427;28;20165;-68
2021/08/19 08:09:06;;;;;;;15.40;12.67;;;18.90;99.90;;;;;;5094504;28;20170;-67
2021/08/19 08:11:32;;;;;;;12.77;11.63;;;18.90;99.90;;;;;;5093894;28;20213;-66
2021/08/19 08:13:58;;;;;;;13.87;11.77;;;19.00;99.90;;;;;;5094154;28;20173;-67
2021/08/19 08:16:24;;;;;;;12.40;11.20;;;19.20;99.90;;;;;;5092998;28;20169;-66
2021/08/19 08:18:50;;;;;;;12.60;11.43;;;19.20;99.90;;;;;;5094116;28;20166;-67
2021/08/19 08:21:16;;;;;;;12.20;11.03;;;19.30;99.90;;;;;;5093720;28;20201;-67
2021/08/19 08:23:43;;;;;;;11.40;10.30;;;19.50;99.90;;;;;;5093941;28;20694;-66
2021/08/19 08:26:11;;;;;;;142.03;135.90;;;19.60;99.90;;;;;;5093926;28;20180;-67
2021/08/19 08:28:36;;;;;;;12.00;10.77;;;19.60;99.90;;;;;;5094012;28;20170;-67
2021/08/19 08:31:03;;;;;;;14.03;12.73;;;19.50;99.90;;;;;;5092690;28;20220;-66
2021/08/19 08:33:32;;;;;;;14.53;11.40;;;19.70;99.90;;;;;;5093598;28;20658;-66
2021/08/19 08:35:58;;;;;;;12.20;10.93;;;19.70;99.90;;;;;;5093736;28;20173;-67
2021/08/19 08:38:25;;;;;;;10.73;9.17;;;19.80;99.90;;;;;;5093840;28;20180;-66
2021/08/19 08:40:52;;;;;;;9.07;8.37;;;19.80;99.90;;;;;;5093287;28;20189;-67
2021/08/19 08:43:20;;;;;;;10.80;9.67;;;19.60;99.90;;;;;;5093343;28;20201;-66
2021/08/19 08:45:48;;;;;;;9.20;8.20;;;19.40;99.90;;;;;;5091864;28;20170;-67
2021/08/19 08:48:18;;;;;;;9.53;8.63;;;19.30;99.90;;;;;;5092263;28;20235;-67
2021/08/19 08:50:47;;;;;;;10.87;9.93;;;19.30;99.90;;;;;;5092086;28;20200;-67
2021/08/19 08:53:15;;;;;;;10.10;9.07;;;19.40;99.90;;;;;;5093222;28;20704;-67
2021/08/19 08:55:42;;;;;;;9.10;8.40;;;19.60;99.90;;;;;;5092937;28;20178;-67
2021/08/19 08:58:08;;;;;;;10.43;9.53;;;19.60;99.90;;;;;;5092124;28;20212;-66
2021/08/19 09:00:34;;;;;;;10.13;8.77;;;19.60;99.90;;;;;;5092953;28;20193;-67
2021/08/19 09:03:00;;;;;;;9.20;8.37;;;19.60;99.90;;;;;;5092855;28;20263;-67
2021/08/19 09:05:29;;;;;;;9.20;8.40;;;19.80;99.90;;;;;;5092909;28;20181;-67
2021/08/19 09:08:00;;;;;;;8.70;8.00;;;19.80;99.90;;;;;;5093212;28;20268;-66
2021/08/19 09:10:28;;;;;;;8.57;8.00;;;19.70;99.90;;;;;;5092622;28;20211;-66
2021/08/19 09:12:54;;;;;;;9.63;8.70;;;19.80;99.90;;;;;;5092974;28;20188;-66
2021/08/19 09:15:25;;;;;;;8.50;7.80;;;20.00;99.90;;;;;;5092875;28;20196;-66
2021/08/19 09:17:53;;;;;;;8.40;7.60;;;20.00;99.90;;;;;;5093082;28;20227;-67
2021/08/19 09:20:34;;;;;;;8.77;8.07;;;19.90;99.90;;;;;;5092395;28;20217;-67
2021/08/19 09:23:11;;;;;;;9.10;8.30;;;19.80;99.90;;;;;;5092968;28;20201;-67
2021/08/19 09:25:38;;;;;;;8.07;7.57;;;20.00;99.90;;;;;;5092706;28;20199;-67
2021/08/19 09:28:23;;;;;;;9.33;8.43;;;20.00;99.90;;;;;;5091710;28;20185;-66
2021/08/19 09:30:53;;;;;;;9.10;8.27;;;19.80;99.90;;;;;;5092071;28;20197;-67
2021/08/19 09:33:21;;;;;;;8.37;7.67;;;19.70;99.90;;;;;;5091423;28;20186;-68
2021/08/19 09:35:48;;;;;;;9.70;7.83;;;19.70;99.90;;;;;;5092066;28;20174;-67
2021/08/19 09:38:18;;;;;;;8.10;7.50;;;19.60;99.90;;;;;;5091408;28;20177;-67
2021/08/19 09:41:03;;;;;;;8.43;7.60;;;19.40;99.90;;;;;;5092365;28;20203;-67
2021/08/19 09:43:42;;;;;;;8.17;7.40;;;19.30;99.90;;;;;;5092291;28;20236;-66
2021/08/19 09:46:09;;;;;;;8.87;7.33;;;19.10;99.90;;;;;;5092568;28;20165;-66
2021/08/19 09:48:35;;;;;;;7.63;7.07;;;18.90;99.90;;;;;;5092379;28;20207;-67
2021/08/19 09:51:33;;;;;;;8.33;7.40;;;18.90;99.90;;;;;;5091858;28;20201;-66
2021/08/19 09:53:59;;;;;;;7.40;6.70;;;18.80;99.90;;;;;;5068897;28;20662;-67
2021/08/19 09:56:33;;;;;;;8.10;7.50;;;18.90;99.90;;;;;;5092600;28;20203;-67
2021/08/19 09:59:18;;;;;;;9.73;6.73;;;19.20;99.90;;;;;;5092174;28;20638;-66
2021/08/19 10:01:44;;;;;;;8.43;7.83;;;19.40;99.90;;;;;;5090735;28;20184;-66
2021/08/19 10:04:10;;;;;;;8.10;7.30;;;19.40;99.90;;;;;;5091694;28;20181;-67
2021/08/19 10:06:36;;;;;;;7.90;7.20;;;19.40;99.90;;;;;;5092377;28;20196;-67
2021/08/19 10:09:01;;;;;;;7.23;6.73;;;19.50;99.90;;;;;;5092130;28;20250;-67
2021/08/19 10:11:27;;;;;;;8.17;7.57;;;19.60;99.90;;;;;;5090280;28;20193;-67
2021/08/19 10:13:54;;;;;;;8.07;7.47;;;19.90;99.90;;;;;;5091891;28;20235;-67
2021/08/19 10:16:21;;;;;;;7.83;7.20;;;20.00;99.90;;;;;;5090928;28;20272;-66
2021/08/19 10:18:49;;;;;;;9.00;8.33;;;20.10;99.90;;;;;;5091846;28;20181;-67
2021/08/19 10:21:16;;;;;;;9.13;8.33;;;20.20;99.90;;;;;;5090959;28;20216;-67
2021/08/19 10:23:46;;;;;;;8.60;7.87;;;20.10;99.90;;;;;;5090929;28;20208;-67
2021/08/19 10:26:18;;;;;;;10.83;9.93;;;20.00;99.90;;;;;;5091636;28;20185;-67
2021/08/19 10:28:48;;;;;;;8.30;7.60;;;20.00;99.90;;;;;;5090536;28;20173;-67
2021/08/19 10:31:38;;;;;;;8.10;7.50;;;19.90;99.90;;;;;;5091526;28;20193;-67
2021/08/19 10:34:04;;;;;;;8.80;7.63;;;20.10;99.90;;;;;;5090419;28;20185;-67
2021/08/19 10:36:30;;;;;;;8.17;7.53;;;20.00;99.90;;;;;;5090802;28;20231;-67
2021/08/19 10:39:20;;;;;;;8.43;7.80;;;20.10;99.90;;;;;;5091704;28;20638;-67
2021/08/19 10:41:47;;;;;;;9.23;8.50;;;20.00;99.90;;;;;;5091525;28;20587;-67
2021/08/19 10:44:13;;;;;;;8.90;8.20;;;20.00;99.90;;;;;;5091614;28;20252;-67
2021/08/19 10:46:44;;;;;;;9.70;8.93;;;19.90;99.90;;;;;;5091890;28;20174;-67
2021/08/19 10:49:29;;;;;;;8.10;7.43;;;19.90;99.90;;;;;;5090369;28;20219;-67
2021/08/19 10:52:16;;;;;;;9.77;8.97;;;20.10;99.90;;;;;;5091674;28;20306;-67
2021/08/19 10:54:50;;;;;;;9.70;8.90;;;20.30;99.90;;;;;;5087313;28;20197;-67
2021/08/19 10:57:25;;;;;;;9.27;8.57;;;20.50;99.90;;;;;;5092836;28;20191;-67
2021/08/19 10:59:57;;;;;;;8.53;7.73;;;20.50;99.90;;;;;;5091640;28;20261;-68
2021/08/19 11:02:41;;;;;;;8.60;8.00;;;20.30;99.90;;;;;;5091654;28;20201;-67
2021/08/19 11:05:27;;;;;;;7.10;6.70;;;20.50;99.90;;;;;;5090874;28;20185;-67
2021/08/19 11:08:00;;;;;;;7.67;7.07;;;20.50;99.90;;;;;;5089375;28;20195;-66
2021/08/19 11:10:31;;;;;;;11.27;10.57;;;20.40;99.90;;;;;;5091463;28;20666;-67
2021/08/19 11:13:05;;;;;;;7.97;7.40;;;20.10;99.90;;;;;;5092101;28;20216;-66
2021/08/19 11:15:32;;;;;;;10.93;6.70;;;20.10;99.90;;;;;;5091044;28;20192;-67
2021/08/19 11:17:59;;;;;;;8.03;7.50;;;20.30;99.90;;;;;;5091398;28;20185;-67
2021/08/19 11:20:30;;;;;;;7.50;7.10;;;20.50;99.90;;;;;;5090885;28;20220;-66
2021/08/19 11:23:06;;;;;;;6.57;6.17;;;20.60;99.90;;;;;;5091282;28;20197;-67
2021/08/19 11:25:35;;;;;;;7.00;6.60;;;20.70;99.90;;;;;;5090988;28;20664;-66
2021/08/19 11:28:19;;;;;;;6.30;5.90;;;20.50;99.90;;;;;;5089521;28;20654;-67
2021/08/19 11:30:50;;;;;;;8.43;7.87;;;20.10;99.90;;;;;;5070729;28;20221;-67
2021/08/19 11:33:23;;;;;;;6.33;5.93;;;19.70;99.90;;;;;;5088861;28;20181;-67
2021/08/19 11:35:53;;;;;;;8.53;7.73;;;19.50;99.90;;;;;;5092396;28;20178;-66
2021/08/19 11:38:23;;;;;;;8.10;7.43;;;19.50;99.90;;;;;;5094459;28;20256;-66
2021/08/19 11:40:54;;;;;;;7.83;7.33;;;19.50;99.90;;;;;;5094714;28;20730;-67
2021/08/19 11:43:24;;;;;;;7.57;7.07;;;19.70;99.90;;;;;;5079282;28;20685;-67
2021/08/19 11:46:07;;;;;;;6.77;6.27;;;20.00;99.90;;;;;;5094889;28;20529;-67
2021/08/19 11:48:34;;;;;;;6.17;5.67;;;20.50;99.90;;;;;;5074844;28;20639;-67
2021/08/19 11:51:02;;;;;;;5.13;4.90;;;20.90;99.90;;;;;;5074144;28;20225;-67
2021/08/19 11:53:28;;;;;;;5.60;5.10;;;21.40;99.90;;;;;;5094703;28;20695;-67
2021/08/19 11:55:55;;;;;;;5.77;5.40;;;22.10;99.90;;;;;;5095018;28;20177;-67
2021/08/19 11:58:24;;;;;;;5.40;5.10;;;22.60;99.90;;;;;;5094572;28;20281;-67
2021/08/19 12:00:59;;;;;;;5.00;4.70;;;22.70;99.90;;;;;;5094292;28;20608;-67
2021/08/19 12:03:25;;;;;;;5.57;5.27;;;22.60;99.90;;;;;;5092998;28;20634;-67
2021/08/19 12:06:23;;;;;;;4.77;4.57;;;22.50;99.90;;;;;;5094440;28;20181;-66
2021/08/19 12:08:50;;;;;;;5.73;5.33;;;22.40;99.90;;;;;;5066108;28;20273;-67
2021/08/19 12:11:18;;;;;;;4.77;4.53;;;22.30;99.90;;;;;;5075585;28;20190;-67
2021/08/19 12:13:44;;;;;;;5.10;4.80;;;22.20;99.90;;;;;;5094394;28;20256;-66
2021/08/19 12:16:11;;;;;;;5.33;5.03;;;22.10;99.90;;;;;;5094444;28;20173;-67
2021/08/19 12:18:36;;;;;;;5.50;5.20;;;21.90;99.90;;;;;;5074221;28;20217;-67
2021/08/19 12:21:20;;;;;;;5.63;5.23;;;22.00;99.90;;;;;;5073583;28;20214;-67
2021/08/19 12:23:47;;;;;;;5.23;4.83;;;22.00;99.90;;;;;;5073781;28;20205;-67
2021/08/19 12:26:17;;;;;;;4.67;4.37;;;22.20;99.90;;;;;;5074385;28;20190;-67
2021/08/19 12:28:54;;;;;;;4.13;3.93;;;22.20;99.90;;;;;;5092764;28;20169;-67
2021/08/19 12:31:20;;;;;;;4.80;4.40;;;22.40;99.90;;;;;;5093652;28;20536;-67
2021/08/19 12:33:46;;;;;;;4.20;4.00;;;22.80;99.90;;;;;;5093992;28;20196;-66
2021/08/19 12:36:16;;;;;;;4.27;4.07;;;22.90;99.90;;;;;;5093119;28;20177;-67
2021/08/19 12:38:44;;;;;;;5.20;4.90;;;22.90;99.90;;;;;;5093954;28;20177;-66